sensor_id;sensor_type;location;lat;lon;timestamp;P1;durP1;ratioP1;P2;durP2;ratioP2
9986;SDS011;5033;46.310;11.214;2024-01-30T00:02:12;3.58;;;3.38;;
9986;SDS011;5033;46.310;11.214;2024-01-30T00:04:41;3.17;;;2.97;;
9986;SDS011;5033;46.310;11.214;2024-01-30T00:07:08;3.45;;;3.25;;
9986;SDS011;5033;46.310;11.214;2024-01-30T00:09:35;3.28;;;3.08;;
9986;SDS011;5033;46.310;11.214;2024-01-30T00:12:02;3.83;;;3.58;;
9986;SDS011;5033;46.310;11.214;2024-01-30T00:14:29;3.60;;;3.40;;
9986;SDS011;5033;46.310;11.214;2024-01-30T00:16:56;3.65;;;3.45;;
9986;SDS011;5033;46.310;11.214;2024-01-30T00:19:23;3.53;;;3.33;;
9986;SDS011;5033;46.310;11.214;2024-01-30T00:21:52;3.65;;;3.45;;
9986;SDS011;5033;46.310;11.214;2024-01-30T00:24:19;4.05;;;3.53;;
9986;SDS011;5033;46.310;11.214;2024-01-30T00:26:46;3.40;;;3.20;;
9986;SDS011;5033;46.310;11.214;2024-01-30T00:29:13;3.70;;;3.40;;
9986;SDS011;5033;46.310;11.214;2024-01-30T00:31:44;3.65;;;3.42;;
9986;SDS011;5033;46.310;11.214;2024-01-30T00:34:11;4.10;;;3.80;;
9986;SDS011;5033;46.310;11.214;2024-01-30T00:36:38;3.97;;;3.67;;
9986;SDS011;5033;46.310;11.214;2024-01-30T00:39:06;3.65;;;3.30;;
9986;SDS011;5033;46.310;11.214;2024-01-30T00:41:34;3.53;;;3.33;;
9986;SDS011;5033;46.310;11.214;2024-01-30T00:44:01;3.63;;;3.40;;
9986;SDS011;5033;46.310;11.214;2024-01-30T00:46:28;4.10;;;3.80;;
9986;SDS011;5033;46.310;11.214;2024-01-30T00:48:55;3.65;;;3.45;;
9986;SDS011;5033;46.310;11.214;2024-01-30T00:51:22;4.25;;;3.95;;
9986;SDS011;5033;46.310;11.214;2024-01-30T00:53:50;4.03;;;3.72;;
9986;SDS011;5033;46.310;11.214;2024-01-30T00:56:18;4.00;;;3.70;;
9986;SDS011;5033;46.310;11.214;2024-01-30T00:58:45;3.72;;;3.53;;
9986;SDS011;5033;46.310;11.214;2024-01-30T01:01:13;3.75;;;3.55;;
9986;SDS011;5033;46.310;11.214;2024-01-30T01:03:40;3.88;;;3.55;;
9986;SDS011;5033;46.310;11.214;2024-01-30T01:06:08;3.70;;;3.50;;
9986;SDS011;5033;46.310;11.214;2024-01-30T01:08:35;3.95;;;3.67;;
9986;SDS011;5033;46.310;11.214;2024-01-30T01:11:03;3.92;;;3.63;;
9986;SDS011;5033;46.310;11.214;2024-01-30T01:13:31;3.80;;;3.60;;
9986;SDS011;5033;46.310;11.214;2024-01-30T01:15:58;3.50;;;3.30;;
9986;SDS011;5033;46.310;11.214;2024-01-30T01:18:25;3.80;;;3.60;;
9986;SDS011;5033;46.310;11.214;2024-01-30T01:20:52;3.58;;;3.38;;
9986;SDS011;5033;46.310;11.214;2024-01-30T01:23:19;3.35;;;3.15;;
9986;SDS011;5033;46.310;11.214;2024-01-30T01:25:46;3.78;;;3.40;;
9986;SDS011;5033;46.310;11.214;2024-01-30T01:28:13;3.83;;;3.63;;
9986;SDS011;5033;46.310;11.214;2024-01-30T01:30:41;3.25;;;3.05;;
9986;SDS011;5033;46.310;11.214;2024-01-30T01:33:08;3.58;;;3.38;;
9986;SDS011;5033;46.310;11.214;2024-01-30T01:35:35;3.65;;;3.40;;
9986;SDS011;5033;46.310;11.214;2024-01-30T01:38:02;4.30;;;4.00;;
9986;SDS011;5033;46.310;11.214;2024-01-30T01:40:29;3.50;;;3.30;;
9986;SDS011;5033;46.310;11.214;2024-01-30T01:42:56;4.00;;;3.70;;
9986;SDS011;5033;46.310;11.214;2024-01-30T01:45:23;3.83;;;3.55;;
9986;SDS011;5033;46.310;11.214;2024-01-30T01:47:52;4.13;;;3.83;;
9986;SDS011;5033;46.310;11.214;2024-01-30T01:50:20;3.50;;;3.22;;
9986;SDS011;5033;46.310;11.214;2024-01-30T01:52:47;3.80;;;3.60;;
9986;SDS011;5033;46.310;11.214;2024-01-30T01:55:15;3.85;;;3.60;;
9986;SDS011;5033;46.310;11.214;2024-01-30T01:57:43;3.60;;;3.40;;
9986;SDS011;5033;46.310;11.214;2024-01-30T02:00:11;4.20;;;3.90;;
9986;SDS011;5033;46.310;11.214;2024-01-30T02:02:40;3.42;;;3.20;;
9986;SDS011;5033;46.310;11.214;2024-01-30T02:05:11;3.67;;;3.40;;
9986;SDS011;5033;46.310;11.214;2024-01-30T02:07:38;3.83;;;3.60;;
9986;SDS011;5033;46.310;11.214;2024-01-30T02:10:05;3.63;;;3.42;;
9986;SDS011;5033;46.310;11.214;2024-01-30T02:12:34;3.53;;;3.33;;
9986;SDS011;5033;46.310;11.214;2024-01-30T02:15:01;3.63;;;3.42;;
9986;SDS011;5033;46.310;11.214;2024-01-30T02:17:30;3.83;;;3.60;;
9986;SDS011;5033;46.310;11.214;2024-01-30T02:19:57;3.60;;;3.40;;
9986;SDS011;5033;46.310;11.214;2024-01-30T02:22:25;3.47;;;3.28;;
9986;SDS011;5033;46.310;11.214;2024-01-30T02:24:52;3.83;;;3.63;;
9986;SDS011;5033;46.310;11.214;2024-01-30T02:27:19;3.80;;;3.50;;
9986;SDS011;5033;46.310;11.214;2024-01-30T02:29:46;3.80;;;3.60;;
9986;SDS011;5033;46.310;11.214;2024-01-30T02:32:13;3.70;;;3.50;;
9986;SDS011;5033;46.310;11.214;2024-01-30T02:34:40;3.75;;;3.55;;
9986;SDS011;5033;46.310;11.214;2024-01-30T02:37:07;3.60;;;3.40;;
9986;SDS011;5033;46.310;11.214;2024-01-30T02:39:36;3.95;;;3.47;;
9986;SDS011;5033;46.310;11.214;2024-01-30T02:42:03;4.05;;;3.70;;
9986;SDS011;5033;46.310;11.214;2024-01-30T02:44:30;3.70;;;3.50;;
9986;SDS011;5033;46.310;11.214;2024-01-30T02:46:57;3.67;;;3.47;;
9986;SDS011;5033;46.310;11.214;2024-01-30T02:49:24;4.18;;;3.88;;
9986;SDS011;5033;46.310;11.214;2024-01-30T02:51:51;3.63;;;3.42;;
9986;SDS011;5033;46.310;11.214;2024-01-30T02:54:19;3.50;;;3.30;;
9986;SDS011;5033;46.310;11.214;2024-01-30T02:56:48;3.78;;;3.50;;
9986;SDS011;5033;46.310;11.214;2024-01-30T02:59:15;4.10;;;3.80;;
9986;SDS011;5033;46.310;11.214;2024-01-30T03:01:42;3.80;;;3.60;;
9986;SDS011;5033;46.310;11.214;2024-01-30T03:04:10;3.67;;;3.47;;
9986;SDS011;5033;46.310;11.214;2024-01-30T03:06:37;3.65;;;3.45;;
9986;SDS011;5033;46.310;11.214;2024-01-30T03:09:04;3.95;;;3.75;;
9986;SDS011;5033;46.310;11.214;2024-01-30T03:11:31;4.00;;;3.70;;
9986;SDS011;5033;46.310;11.214;2024-01-30T03:14:00;3.83;;;3.63;;
9986;SDS011;5033;46.310;11.214;2024-01-30T03:16:27;4.15;;;3.88;;
9986;SDS011;5033;46.310;11.214;2024-01-30T03:18:55;3.53;;;3.33;;
9986;SDS011;5033;46.310;11.214;2024-01-30T03:21:22;3.42;;;3.22;;
9986;SDS011;5033;46.310;11.214;2024-01-30T03:23:49;3.50;;;3.30;;
9986;SDS011;5033;46.310;11.214;2024-01-30T03:26:16;3.92;;;3.72;;
9986;SDS011;5033;46.310;11.214;2024-01-30T03:28:43;3.47;;;3.28;;
9986;SDS011;5033;46.310;11.214;2024-01-30T03:31:13;4.03;;;3.83;;
9986;SDS011;5033;46.310;11.214;2024-01-30T03:33:42;3.63;;;3.42;;
9986;SDS011;5033;46.310;11.214;2024-01-30T03:36:09;3.53;;;3.33;;
9986;SDS011;5033;46.310;11.214;2024-01-30T03:38:37;3.95;;;3.75;;
9986;SDS011;5033;46.310;11.214;2024-01-30T03:41:07;3.80;;;3.60;;
9986;SDS011;5033;46.310;11.214;2024-01-30T03:43:34;3.50;;;3.30;;
9986;SDS011;5033;46.310;11.214;2024-01-30T03:46:01;3.90;;;3.70;;
9986;SDS011;5033;46.310;11.214;2024-01-30T03:48:30;3.95;;;3.70;;
9986;SDS011;5033;46.310;11.214;2024-01-30T03:50:57;4.00;;;3.70;;
9986;SDS011;5033;46.310;11.214;2024-01-30T03:53:24;3.80;;;3.55;;
9986;SDS011;5033;46.310;11.214;2024-01-30T03:55:51;4.00;;;3.70;;
9986;SDS011;5033;46.310;11.214;2024-01-30T03:58:18;3.67;;;3.47;;
9986;SDS011;5033;46.310;11.214;2024-01-30T04:00:45;3.85;;;3.60;;
9986;SDS011;5033;46.310;11.214;2024-01-30T04:03:12;3.60;;;3.40;;
9986;SDS011;5033;46.310;11.214;2024-01-30T04:05:42;4.50;;;3.80;;
9986;SDS011;5033;46.310;11.214;2024-01-30T04:08:09;3.95;;;3.70;;
9986;SDS011;5033;46.310;11.214;2024-01-30T04:10:36;3.95;;;3.67;;
9986;SDS011;5033;46.310;11.214;2024-01-30T04:13:06;3.90;;;3.70;;
9986;SDS011;5033;46.310;11.214;2024-01-30T04:15:33;3.58;;;3.38;;
9986;SDS011;5033;46.310;11.214;2024-01-30T04:18:00;3.63;;;3.42;;
9986;SDS011;5033;46.310;11.214;2024-01-30T04:20:27;3.83;;;3.60;;
9986;SDS011;5033;46.310;11.214;2024-01-30T04:22:56;3.55;;;3.35;;
9986;SDS011;5033;46.310;11.214;2024-01-30T04:25:23;3.67;;;3.47;;
9986;SDS011;5033;46.310;11.214;2024-01-30T04:27:50;3.92;;;3.67;;
9986;SDS011;5033;46.310;11.214;2024-01-30T04:30:17;3.88;;;3.67;;
9986;SDS011;5033;46.310;11.214;2024-01-30T04:32:44;3.80;;;3.50;;
9986;SDS011;5033;46.310;11.214;2024-01-30T04:35:11;3.65;;;3.45;;
9986;SDS011;5033;46.310;11.214;2024-01-30T04:37:38;3.33;;;3.13;;
9986;SDS011;5033;46.310;11.214;2024-01-30T04:40:07;3.80;;;3.60;;
9986;SDS011;5033;46.310;11.214;2024-01-30T04:42:34;3.80;;;3.60;;
9986;SDS011;5033;46.310;11.214;2024-01-30T04:45:01;4.07;;;3.80;;
9986;SDS011;5033;46.310;11.214;2024-01-30T04:47:29;4.22;;;3.92;;
9986;SDS011;5033;46.310;11.214;2024-01-30T04:49:56;3.72;;;3.50;;
9986;SDS011;5033;46.310;11.214;2024-01-30T04:52:23;4.43;;;4.03;;
9986;SDS011;5033;46.310;11.214;2024-01-30T04:54:50;3.50;;;3.30;;
9986;SDS011;5033;46.310;11.214;2024-01-30T04:57:18;4.13;;;3.78;;
9986;SDS011;5033;46.310;11.214;2024-01-30T04:59:45;3.65;;;3.45;;
9986;SDS011;5033;46.310;11.214;2024-01-30T05:02:12;3.75;;;3.55;;
9986;SDS011;5033;46.310;11.214;2024-01-30T05:04:40;3.83;;;3.60;;
9986;SDS011;5033;46.310;11.214;2024-01-30T05:07:07;3.65;;;3.45;;
9986;SDS011;5033;46.310;11.214;2024-01-30T05:09:34;4.05;;;3.85;;
9986;SDS011;5033;46.310;11.214;2024-01-30T05:12:01;4.97;;;4.57;;
9986;SDS011;5033;46.310;11.214;2024-01-30T05:14:30;4.55;;;4.15;;
9986;SDS011;5033;46.310;11.214;2024-01-30T05:16:56;4.13;;;3.83;;
9986;SDS011;5033;46.310;11.214;2024-01-30T05:19:23;4.00;;;3.70;;
9986;SDS011;5033;46.310;11.214;2024-01-30T05:21:50;4.68;;;4.28;;
9986;SDS011;5033;46.310;11.214;2024-01-30T05:24:18;4.45;;;4.15;;
9986;SDS011;5033;46.310;11.214;2024-01-30T05:26:45;4.22;;;4.00;;
9986;SDS011;5033;46.310;11.214;2024-01-30T05:29:13;4.00;;;3.80;;
9986;SDS011;5033;46.310;11.214;2024-01-30T05:31:41;4.03;;;3.72;;
9986;SDS011;5033;46.310;11.214;2024-01-30T05:34:08;4.20;;;3.90;;
9986;SDS011;5033;46.310;11.214;2024-01-30T05:36:35;3.90;;;3.70;;
9986;SDS011;5033;46.310;11.214;2024-01-30T05:39:02;3.72;;;3.53;;
9986;SDS011;5033;46.310;11.214;2024-01-30T05:41:30;3.83;;;3.63;;
9986;SDS011;5033;46.310;11.214;2024-01-30T05:43:57;3.55;;;3.35;;
9986;SDS011;5033;46.310;11.214;2024-01-30T05:46:24;3.65;;;3.45;;
9986;SDS011;5033;46.310;11.214;2024-01-30T05:48:52;3.65;;;3.45;;
9986;SDS011;5033;46.310;11.214;2024-01-30T05:51:20;3.83;;;3.63;;
9986;SDS011;5033;46.310;11.214;2024-01-30T05:53:47;3.88;;;3.65;;
9986;SDS011;5033;46.310;11.214;2024-01-30T05:56:14;3.63;;;3.42;;
9986;SDS011;5033;46.310;11.214;2024-01-30T05:58:41;4.07;;;3.78;;
9986;SDS011;5033;46.310;11.214;2024-01-30T06:01:09;3.75;;;3.55;;
9986;SDS011;5033;46.310;11.214;2024-01-30T06:03:36;3.78;;;3.58;;
9986;SDS011;5033;46.310;11.214;2024-01-30T06:06:05;4.60;;;4.30;;
9986;SDS011;5033;46.310;11.214;2024-01-30T06:08:32;3.90;;;3.70;;
9986;SDS011;5033;46.310;11.214;2024-01-30T06:10:59;4.32;;;4.03;;
9986;SDS011;5033;46.310;11.214;2024-01-30T06:13:26;4.40;;;4.10;;
9986;SDS011;5033;46.310;11.214;2024-01-30T06:15:56;4.07;;;3.88;;
9986;SDS011;5033;46.310;11.214;2024-01-30T06:18:23;4.57;;;4.22;;
9986;SDS011;5033;46.310;11.214;2024-01-30T06:20:52;4.28;;;3.97;;
9986;SDS011;5033;46.310;11.214;2024-01-30T06:23:20;4.07;;;3.88;;
9986;SDS011;5033;46.310;11.214;2024-01-30T06:25:47;4.43;;;4.13;;
9986;SDS011;5033;46.310;11.214;2024-01-30T06:28:14;4.13;;;3.90;;
9986;SDS011;5033;46.310;11.214;2024-01-30T06:30:41;4.55;;;4.25;;
9986;SDS011;5033;46.310;11.214;2024-01-30T06:33:10;4.22;;;4.03;;
9986;SDS011;5033;46.310;11.214;2024-01-30T06:35:38;3.95;;;3.67;;
9986;SDS011;5033;46.310;11.214;2024-01-30T06:38:05;4.43;;;4.13;;
9986;SDS011;5033;46.310;11.214;2024-01-30T06:40:33;4.15;;;3.85;;
9986;SDS011;5033;46.310;11.214;2024-01-30T06:43:00;4.07;;;3.88;;
9986;SDS011;5033;46.310;11.214;2024-01-30T06:45:27;4.55;;;4.00;;
9986;SDS011;5033;46.310;11.214;2024-01-30T06:47:54;4.10;;;3.80;;
9986;SDS011;5033;46.310;11.214;2024-01-30T06:50:21;4.25;;;3.83;;
9986;SDS011;5033;46.310;11.214;2024-01-30T06:52:48;4.80;;;4.40;;
9986;SDS011;5033;46.310;11.214;2024-01-30T06:55:16;5.00;;;4.60;;
9986;SDS011;5033;46.310;11.214;2024-01-30T06:57:44;5.20;;;4.78;;
9986;SDS011;5033;46.310;11.214;2024-01-30T07:00:11;5.15;;;4.65;;
9986;SDS011;5033;46.310;11.214;2024-01-30T07:02:40;5.63;;;4.80;;
9986;SDS011;5033;46.310;11.214;2024-01-30T07:05:07;4.97;;;4.50;;
9986;SDS011;5033;46.310;11.214;2024-01-30T07:07:34;4.45;;;4.13;;
9986;SDS011;5033;46.310;11.214;2024-01-30T07:10:01;4.60;;;4.30;;
9986;SDS011;5033;46.310;11.214;2024-01-30T07:12:30;4.93;;;4.53;;
9986;SDS011;5033;46.310;11.214;2024-01-30T07:14:58;4.88;;;4.57;;
9986;SDS011;5033;46.310;11.214;2024-01-30T07:17:26;4.03;;;3.72;;
9986;SDS011;5033;46.310;11.214;2024-01-30T07:19:53;5.05;;;4.65;;
9986;SDS011;5033;46.310;11.214;2024-01-30T07:22:20;4.68;;;4.38;;
9986;SDS011;5033;46.310;11.214;2024-01-30T07:24:47;4.50;;;4.18;;
9986;SDS011;5033;46.310;11.214;2024-01-30T07:27:14;4.35;;;4.05;;
9986;SDS011;5033;46.310;11.214;2024-01-30T07:29:42;4.53;;;4.22;;
9986;SDS011;5033;46.310;11.214;2024-01-30T07:32:11;4.50;;;4.20;;
9986;SDS011;5033;46.310;11.214;2024-01-30T07:34:38;4.50;;;4.20;;
9986;SDS011;5033;46.310;11.214;2024-01-30T07:37:05;4.38;;;3.97;;
9986;SDS011;5033;46.310;11.214;2024-01-30T07:39:33;4.72;;;4.32;;
9986;SDS011;5033;46.310;11.214;2024-01-30T07:42:00;4.72;;;4.43;;
9986;SDS011;5033;46.310;11.214;2024-01-30T07:44:27;4.85;;;4.45;;
9986;SDS011;5033;46.310;11.214;2024-01-30T07:46:54;5.05;;;4.63;;
9986;SDS011;5033;46.310;11.214;2024-01-30T07:49:23;5.22;;;4.85;;
9986;SDS011;5033;46.310;11.214;2024-01-30T07:51:50;5.35;;;4.85;;
9986;SDS011;5033;46.310;11.214;2024-01-30T07:54:17;6.70;;;5.82;;
9986;SDS011;5033;46.310;11.214;2024-01-30T07:56:44;6.88;;;6.20;;
9986;SDS011;5033;46.310;11.214;2024-01-30T07:59:11;5.82;;;5.32;;
9986;SDS011;5033;46.310;11.214;2024-01-30T08:01:39;6.05;;;5.45;;
9986;SDS011;5033;46.310;11.214;2024-01-30T08:04:06;5.80;;;5.03;;
9986;SDS011;5033;46.310;11.214;2024-01-30T08:06:34;5.10;;;4.70;;
9986;SDS011;5033;46.310;11.214;2024-01-30T08:09:01;5.10;;;4.60;;
9986;SDS011;5033;46.310;11.214;2024-01-30T08:11:29;5.13;;;4.70;;
9986;SDS011;5033;46.310;11.214;2024-01-30T08:13:56;4.65;;;4.20;;
9986;SDS011;5033;46.310;11.214;2024-01-30T08:16:23;5.30;;;4.82;;
9986;SDS011;5033;46.310;11.214;2024-01-30T08:18:50;4.85;;;4.45;;
9986;SDS011;5033;46.310;11.214;2024-01-30T08:21:18;5.47;;;4.90;;
9986;SDS011;5033;46.310;11.214;2024-01-30T08:23:47;5.40;;;4.90;;
9986;SDS011;5033;46.310;11.214;2024-01-30T08:26:14;5.03;;;4.63;;
9986;SDS011;5033;46.310;11.214;2024-01-30T08:28:41;7.07;;;6.38;;
9986;SDS011;5033;46.310;11.214;2024-01-30T08:31:10;7.53;;;6.75;;
9986;SDS011;5033;46.310;11.214;2024-01-30T08:33:37;9.18;;;7.93;;
9986;SDS011;5033;46.310;11.214;2024-01-30T08:36:04;8.55;;;7.75;;
9986;SDS011;5033;46.310;11.214;2024-01-30T08:38:31;8.85;;;7.70;;
9986;SDS011;5033;46.310;11.214;2024-01-30T08:41:00;7.43;;;6.55;;
9986;SDS011;5033;46.310;11.214;2024-01-30T08:43:28;7.95;;;5.65;;
9986;SDS011;5033;46.310;11.214;2024-01-30T08:45:55;7.47;;;5.70;;
9986;SDS011;5033;46.310;11.214;2024-01-30T08:48:22;6.47;;;5.82;;
9986;SDS011;5033;46.310;11.214;2024-01-30T08:50:50;5.65;;;5.05;;
9986;SDS011;5033;46.310;11.214;2024-01-30T08:53:17;4.97;;;4.57;;
9986;SDS011;5033;46.310;11.214;2024-01-30T08:55:44;4.60;;;4.20;;
9986;SDS011;5033;46.310;11.214;2024-01-30T08:58:13;5.00;;;4.50;;
9986;SDS011;5033;46.310;11.214;2024-01-30T09:00:40;6.00;;;4.90;;
9986;SDS011;5033;46.310;11.214;2024-01-30T09:03:07;5.32;;;4.38;;
9986;SDS011;5033;46.310;11.214;2024-01-30T09:05:34;5.15;;;4.75;;
9986;SDS011;5033;46.310;11.214;2024-01-30T09:08:01;5.35;;;4.82;;
9986;SDS011;5033;46.310;11.214;2024-01-30T09:10:28;5.05;;;4.65;;
9986;SDS011;5033;46.310;11.214;2024-01-30T09:12:55;5.00;;;4.50;;
9986;SDS011;5033;46.310;11.214;2024-01-30T09:15:23;5.03;;;4.45;;
9986;SDS011;5033;46.310;11.214;2024-01-30T09:17:50;6.05;;;4.63;;
9986;SDS011;5033;46.310;11.214;2024-01-30T09:20:17;5.30;;;4.55;;
9986;SDS011;5033;46.310;11.214;2024-01-30T09:22:45;5.30;;;4.53;;
9986;SDS011;5033;46.310;11.214;2024-01-30T09:25:12;4.55;;;4.15;;
9986;SDS011;5033;46.310;11.214;2024-01-30T09:27:39;5.07;;;4.55;;
9986;SDS011;5033;46.310;11.214;2024-01-30T09:30:07;5.10;;;4.60;;
9986;SDS011;5033;46.310;11.214;2024-01-30T09:32:36;6.15;;;4.75;;
9986;SDS011;5033;46.310;11.214;2024-01-30T09:35:03;6.70;;;4.43;;
9986;SDS011;5033;46.310;11.214;2024-01-30T09:37:31;5.18;;;4.68;;
9986;SDS011;5033;46.310;11.214;2024-01-30T09:39:58;5.30;;;4.80;;
9986;SDS011;5033;46.310;11.214;2024-01-30T09:42:26;4.78;;;4.38;;
9986;SDS011;5033;46.310;11.214;2024-01-30T09:45:01;6.15;;;4.78;;
9986;SDS011;5033;46.310;11.214;2024-01-30T09:47:30;4.88;;;4.45;;
9986;SDS011;5033;46.310;11.214;2024-01-30T09:50:00;4.70;;;4.28;;
9986;SDS011;5033;46.310;11.214;2024-01-30T09:52:31;6.28;;;4.78;;
9986;SDS011;5033;46.310;11.214;2024-01-30T09:54:59;7.90;;;4.72;;
9986;SDS011;5033;46.310;11.214;2024-01-30T09:57:26;5.55;;;4.50;;
9986;SDS011;5033;46.310;11.214;2024-01-30T09:59:53;5.15;;;4.63;;
9986;SDS011;5033;46.310;11.214;2024-01-30T10:02:20;5.38;;;4.60;;
9986;SDS011;5033;46.310;11.214;2024-01-30T10:04:48;4.47;;;4.07;;
9986;SDS011;5033;46.310;11.214;2024-01-30T10:07:17;5.32;;;4.75;;
9986;SDS011;5033;46.310;11.214;2024-01-30T10:09:44;4.63;;;4.22;;
9986;SDS011;5033;46.310;11.214;2024-01-30T10:12:11;5.28;;;4.30;;
9986;SDS011;5033;46.310;11.214;2024-01-30T10:14:39;5.25;;;4.70;;
9986;SDS011;5033;46.310;11.214;2024-01-30T10:17:07;4.85;;;4.32;;
9986;SDS011;5033;46.310;11.214;2024-01-30T10:19:35;7.13;;;4.25;;
9986;SDS011;5033;46.310;11.214;2024-01-30T10:22:02;6.97;;;4.20;;
9986;SDS011;5033;46.310;11.214;2024-01-30T10:24:30;4.53;;;4.13;;
9986;SDS011;5033;46.310;11.214;2024-01-30T10:26:59;4.43;;;4.03;;
9986;SDS011;5033;46.310;11.214;2024-01-30T10:29:26;4.63;;;4.22;;
9986;SDS011;5033;46.310;11.214;2024-01-30T10:32:00;4.57;;;4.18;;
9986;SDS011;5033;46.310;11.214;2024-01-30T10:34:28;7.13;;;5.18;;
9986;SDS011;5033;46.310;11.214;2024-01-30T10:36:59;5.70;;;4.35;;
9986;SDS011;5033;46.310;11.214;2024-01-30T10:39:30;4.90;;;4.38;;
9986;SDS011;5033;46.310;11.214;2024-01-30T10:42:04;4.88;;;4.38;;
9986;SDS011;5033;46.310;11.214;2024-01-30T10:44:34;6.28;;;4.32;;
9986;SDS011;5033;46.310;11.214;2024-01-30T10:47:06;5.22;;;4.80;;
9986;SDS011;5033;46.310;11.214;2024-01-30T10:49:36;6.32;;;4.97;;
9986;SDS011;5033;46.310;11.214;2024-01-30T10:52:04;5.65;;;5.00;;
9986;SDS011;5033;46.310;11.214;2024-01-30T10:54:33;5.00;;;4.50;;
9986;SDS011;5033;46.310;11.214;2024-01-30T10:57:01;5.80;;;4.85;;
9986;SDS011;5033;46.310;11.214;2024-01-30T10:59:29;5.72;;;4.30;;
9986;SDS011;5033;46.310;11.214;2024-01-30T11:01:57;5.18;;;4.43;;
9986;SDS011;5033;46.310;11.214;2024-01-30T11:04:26;5.78;;;4.43;;
9986;SDS011;5033;46.310;11.214;2024-01-30T11:06:53;6.18;;;4.80;;
9986;SDS011;5033;46.310;11.214;2024-01-30T11:09:20;7.13;;;4.47;;
9986;SDS011;5033;46.310;11.214;2024-01-30T11:11:49;6.32;;;4.60;;
9986;SDS011;5033;46.310;11.214;2024-01-30T11:14:20;5.20;;;4.20;;
9986;SDS011;5033;46.310;11.214;2024-01-30T11:16:50;5.22;;;4.15;;
9986;SDS011;5033;46.310;11.214;2024-01-30T11:19:22;5.43;;;4.55;;
9986;SDS011;5033;46.310;11.214;2024-01-30T11:21:50;4.90;;;4.45;;
9986;SDS011;5033;46.310;11.214;2024-01-30T11:24:19;6.05;;;4.00;;
9986;SDS011;5033;46.310;11.214;2024-01-30T11:26:47;5.35;;;4.53;;
9986;SDS011;5033;46.310;11.214;2024-01-30T11:29:16;5.07;;;4.20;;
9986;SDS011;5033;46.310;11.214;2024-01-30T11:31:53;7.22;;;5.18;;
9986;SDS011;5033;46.310;11.214;2024-01-30T11:34:20;6.72;;;5.13;;
9986;SDS011;5033;46.310;11.214;2024-01-30T11:36:50;7.38;;;5.13;;
9986;SDS011;5033;46.310;11.214;2024-01-30T11:39:23;7.75;;;4.43;;
9986;SDS011;5033;46.310;11.214;2024-01-30T11:41:52;6.15;;;4.85;;
9986;SDS011;5033;46.310;11.214;2024-01-30T11:44:20;6.40;;;4.30;;
9986;SDS011;5033;46.310;11.214;2024-01-30T11:46:48;4.20;;;3.63;;
9986;SDS011;5033;46.310;11.214;2024-01-30T11:49:17;5.43;;;4.65;;
9986;SDS011;5033;46.310;11.214;2024-01-30T11:51:45;5.38;;;4.35;;
9986;SDS011;5033;46.310;11.214;2024-01-30T11:54:13;5.15;;;4.15;;
9986;SDS011;5033;46.310;11.214;2024-01-30T11:56:41;4.38;;;3.95;;
9986;SDS011;5033;46.310;11.214;2024-01-30T11:59:10;5.47;;;4.05;;
9986;SDS011;5033;46.310;11.214;2024-01-30T12:01:37;4.97;;;4.18;;
9986;SDS011;5033;46.310;11.214;2024-01-30T12:04:04;5.32;;;3.80;;
9986;SDS011;5033;46.310;11.214;2024-01-30T12:06:34;4.30;;;3.78;;
9986;SDS011;5033;46.310;11.214;2024-01-30T12:09:01;4.07;;;3.67;;
9986;SDS011;5033;46.310;11.214;2024-01-30T12:11:30;3.95;;;3.65;;
9986;SDS011;5033;46.310;11.214;2024-01-30T12:13:57;6.10;;;3.80;;
9986;SDS011;5033;46.310;11.214;2024-01-30T12:16:26;4.68;;;3.38;;
9986;SDS011;5033;46.310;11.214;2024-01-30T12:18:59;3.97;;;3.67;;
9986;SDS011;5033;46.310;11.214;2024-01-30T12:21:27;3.63;;;3.30;;
9986;SDS011;5033;46.310;11.214;2024-01-30T12:23:55;3.92;;;3.38;;
9986;SDS011;5033;46.310;11.214;2024-01-30T12:26:23;5.38;;;3.38;;
9986;SDS011;5033;46.310;11.214;2024-01-30T12:28:53;4.40;;;4.00;;
9986;SDS011;5033;46.310;11.214;2024-01-30T12:31:26;3.97;;;3.58;;
9986;SDS011;5033;46.310;11.214;2024-01-30T12:33:54;3.67;;;3.38;;
9986;SDS011;5033;46.310;11.214;2024-01-30T12:36:21;5.07;;;3.63;;
9986;SDS011;5033;46.310;11.214;2024-01-30T12:38:49;4.55;;;3.90;;
9986;SDS011;5033;46.310;11.214;2024-01-30T12:41:16;6.70;;;3.92;;
9986;SDS011;5033;46.310;11.214;2024-01-30T12:43:44;4.30;;;3.72;;
9986;SDS011;5033;46.310;11.214;2024-01-30T12:46:12;4.82;;;3.53;;
9986;SDS011;5033;46.310;11.214;2024-01-30T12:48:41;6.68;;;3.83;;
9986;SDS011;5033;46.310;11.214;2024-01-30T12:51:08;3.65;;;3.35;;
9986;SDS011;5033;46.310;11.214;2024-01-30T12:53:35;3.80;;;3.40;;
9986;SDS011;5033;46.310;11.214;2024-01-30T12:56:02;4.00;;;3.60;;
9986;SDS011;5033;46.310;11.214;2024-01-30T12:58:29;5.25;;;3.67;;
9986;SDS011;5033;46.310;11.214;2024-01-30T13:00:56;4.35;;;3.88;;
9986;SDS011;5033;46.310;11.214;2024-01-30T13:03:23;4.13;;;3.72;;
9986;SDS011;5033;46.310;11.214;2024-01-30T13:05:53;4.50;;;3.90;;
9986;SDS011;5033;46.310;11.214;2024-01-30T13:08:20;3.97;;;3.58;;
9986;SDS011;5033;46.310;11.214;2024-01-30T13:10:47;3.22;;;3.00;;
9986;SDS011;5033;46.310;11.214;2024-01-30T13:13:14;5.55;;;4.18;;
9986;SDS011;5033;46.310;11.214;2024-01-30T13:15:41;3.67;;;3.22;;
9986;SDS011;5033;46.310;11.214;2024-01-30T13:18:08;4.07;;;3.67;;
9986;SDS011;5033;46.310;11.214;2024-01-30T13:20:35;5.32;;;3.97;;
9986;SDS011;5033;46.310;11.214;2024-01-30T13:23:03;5.38;;;4.18;;
9986;SDS011;5033;46.310;11.214;2024-01-30T13:25:30;3.65;;;3.35;;
9986;SDS011;5033;46.310;11.214;2024-01-30T13:27:57;4.57;;;3.72;;
9986;SDS011;5033;46.310;11.214;2024-01-30T13:30:24;4.57;;;3.90;;
9986;SDS011;5033;46.310;11.214;2024-01-30T13:32:51;4.35;;;3.95;;
9986;SDS011;5033;46.310;11.214;2024-01-30T13:35:19;3.60;;;3.30;;
9986;SDS011;5033;46.310;11.214;2024-01-30T13:37:46;3.38;;;3.08;;
9986;SDS011;5033;46.310;11.214;2024-01-30T13:40:15;4.18;;;3.78;;
9986;SDS011;5033;46.310;11.214;2024-01-30T13:42:42;3.85;;;3.45;;
9986;SDS011;5033;46.310;11.214;2024-01-30T13:45:09;4.70;;;3.47;;
9986;SDS011;5033;46.310;11.214;2024-01-30T13:47:36;4.55;;;3.70;;
9986;SDS011;5033;46.310;11.214;2024-01-30T13:50:04;5.18;;;3.50;;
9986;SDS011;5033;46.310;11.214;2024-01-30T13:52:31;4.05;;;3.65;;
9986;SDS011;5033;46.310;11.214;2024-01-30T13:54:58;4.68;;;3.70;;
9986;SDS011;5033;46.310;11.214;2024-01-30T13:57:26;3.85;;;3.55;;
9986;SDS011;5033;46.310;11.214;2024-01-30T13:59:53;4.32;;;3.22;;
9986;SDS011;5033;46.310;11.214;2024-01-30T14:02:20;4.00;;;3.58;;
9986;SDS011;5033;46.310;11.214;2024-01-30T14:04:47;4.00;;;3.65;;
9986;SDS011;5033;46.310;11.214;2024-01-30T14:07:14;3.83;;;3.45;;
9986;SDS011;5033;46.310;11.214;2024-01-30T14:09:43;4.68;;;3.35;;
9986;SDS011;5033;46.310;11.214;2024-01-30T14:12:10;3.97;;;3.40;;
9986;SDS011;5033;46.310;11.214;2024-01-30T14:14:39;3.70;;;3.22;;
9986;SDS011;5033;46.310;11.214;2024-01-30T14:17:06;3.95;;;3.58;;
9986;SDS011;5033;46.310;11.214;2024-01-30T14:19:33;3.47;;;3.10;;
9986;SDS011;5033;46.310;11.214;2024-01-30T14:22:01;4.10;;;3.50;;
9986;SDS011;5033;46.310;11.214;2024-01-30T14:24:28;3.75;;;3.42;;
9986;SDS011;5033;46.310;11.214;2024-01-30T14:26:55;3.88;;;3.42;;
9986;SDS011;5033;46.310;11.214;2024-01-30T14:29:22;3.35;;;3.05;;
9986;SDS011;5033;46.310;11.214;2024-01-30T14:31:51;4.22;;;3.85;;
9986;SDS011;5033;46.310;11.214;2024-01-30T14:34:18;2.90;;;2.70;;
9986;SDS011;5033;46.310;11.214;2024-01-30T14:36:44;3.15;;;2.90;;
9986;SDS011;5033;46.310;11.214;2024-01-30T14:39:11;3.13;;;2.83;;
9986;SDS011;5033;46.310;11.214;2024-01-30T14:41:38;3.83;;;2.92;;
9986;SDS011;5033;46.310;11.214;2024-01-30T14:44:06;2.75;;;2.55;;
9986;SDS011;5033;46.310;11.214;2024-01-30T14:46:33;3.63;;;2.97;;
9986;SDS011;5033;46.310;11.214;2024-01-30T14:49:02;3.33;;;3.03;;
9986;SDS011;5033;46.310;11.214;2024-01-30T14:51:30;3.03;;;2.83;;
9986;SDS011;5033;46.310;11.214;2024-01-30T14:53:58;3.17;;;2.97;;
9986;SDS011;5033;46.310;11.214;2024-01-30T14:56:25;3.17;;;2.97;;
9986;SDS011;5033;46.310;11.214;2024-01-30T14:58:53;3.10;;;2.80;;
9986;SDS011;5033;46.310;11.214;2024-01-30T15:01:20;3.33;;;3.03;;
9986;SDS011;5033;46.310;11.214;2024-01-30T15:03:46;3.47;;;3.17;;